Terminal Aerodrome Forecast
Issued by NWS Hastings, NE

Home | Current Version | Previous Version | Text Only | Print | Product List | Glossary On
Versions: 1 2 3 4 5 6 7 8 9 10 11 12 13 14
000
FTUS45 KGID 161720
TAFEAR
TAF
KEAR 161720Z 1618/1718 02010KT P6SM SCT200
     FM170700 01011KT P6SM SCT020 BKN035
     FM171400 36008KT P6SM SCT008 BKN015
     FM171700 35008KT P6SM SCT015 BKN045=

USA.gov is the U.S. government's official web portal to all federal, state and local government web resources and services.